Terminal Aerodrome Forecast
Issued by NWS

Home | Current Version | Previous Version | Text Only | Print | Product List | Glossary On
Versions: 1 2 3 4 5 6 7 8 9 10 11 12 13 14 15 16 17
000
FTUS44 KMAF 182300
TAFINK
TAF
KINK 182324Z 1900/1924 10004KT P6SM OVC100
     FM191200 05006KT 4SM BR OVC010
      TEMPO 1912/1916 1SM BR OVC004=

USA.gov is the U.S. government's official web portal to all federal, state and local government web resources and services.